sensor_id;sensor_type;location;lat;lon;timestamp;temperature;humidity
19258;DHT22;9763;48.780;9.212;2023-07-22T00:00:43;19.70;51.40
19258;DHT22;9763;48.780;9.212;2023-07-22T00:04:08;19.70;51.60
19258;DHT22;9763;48.780;9.212;2023-07-22T00:07:32;19.60;51.50
19258;DHT22;9763;48.780;9.212;2023-07-22T00:10:55;19.60;51.80
19258;DHT22;9763;48.780;9.212;2023-07-22T00:14:19;19.50;51.60
19258;DHT22;9763;48.780;9.212;2023-07-22T00:17:44;19.50;51.90
19258;DHT22;9763;48.780;9.212;2023-07-22T00:21:08;19.40;51.80
19258;DHT22;9763;48.780;9.212;2023-07-22T00:24:31;19.40;51.90
19258;DHT22;9763;48.780;9.212;2023-07-22T00:27:55;19.30;52.00
19258;DHT22;9763;48.780;9.212;2023-07-22T00:31:19;19.30;52.00
19258;DHT22;9763;48.780;9.212;2023-07-22T00:34:45;19.20;52.10
19258;DHT22;9763;48.780;9.212;2023-07-22T00:38:08;19.20;52.20
19258;DHT22;9763;48.780;9.212;2023-07-22T00:41:33;19.20;52.30
19258;DHT22;9763;48.780;9.212;2023-07-22T00:44:56;19.10;52.30
19258;DHT22;9763;48.780;9.212;2023-07-22T00:48:20;19.10;52.30
19258;DHT22;9763;48.780;9.212;2023-07-22T00:51:46;19.10;52.60
19258;DHT22;9763;48.780;9.212;2023-07-22T00:55:10;19.10;52.60
19258;DHT22;9763;48.780;9.212;2023-07-22T00:58:34;19.00;52.70
19258;DHT22;9763;48.780;9.212;2023-07-22T01:01:57;19.00;52.70
19258;DHT22;9763;48.780;9.212;2023-07-22T01:05:21;18.90;52.70
19258;DHT22;9763;48.780;9.212;2023-07-22T01:08:46;18.90;52.70
19258;DHT22;9763;48.780;9.212;2023-07-22T01:12:11;18.90;52.90
19258;DHT22;9763;48.780;9.212;2023-07-22T01:15:36;18.80;53.30
19258;DHT22;9763;48.780;9.212;2023-07-22T01:19:01;18.80;53.10
19258;DHT22;9763;48.780;9.212;2023-07-22T01:22:27;18.70;53.00
19258;DHT22;9763;48.780;9.212;2023-07-22T01:25:54;18.70;53.40
19258;DHT22;9763;48.780;9.212;2023-07-22T01:29:18;18.70;53.40
19258;DHT22;9763;48.780;9.212;2023-07-22T01:32:43;18.70;53.50
19258;DHT22;9763;48.780;9.212;2023-07-22T01:36:07;18.70;53.50
19258;DHT22;9763;48.780;9.212;2023-07-22T01:39:30;18.70;53.50
19258;DHT22;9763;48.780;9.212;2023-07-22T01:42:55;18.70;53.40
19258;DHT22;9763;48.780;9.212;2023-07-22T01:46:19;18.60;53.40
19258;DHT22;9763;48.780;9.212;2023-07-22T01:49:44;18.60;53.50
19258;DHT22;9763;48.780;9.212;2023-07-22T01:53:08;18.60;53.50
19258;DHT22;9763;48.780;9.212;2023-07-22T01:56:32;18.60;53.40
19258;DHT22;9763;48.780;9.212;2023-07-22T01:59:56;18.50;53.40
19258;DHT22;9763;48.780;9.212;2023-07-22T02:03:20;18.50;53.70
19258;DHT22;9763;48.780;9.212;2023-07-22T02:06:44;18.50;53.70
19258;DHT22;9763;48.780;9.212;2023-07-22T02:10:08;18.50;53.70
19258;DHT22;9763;48.780;9.212;2023-07-22T02:13:33;18.50;53.80
19258;DHT22;9763;48.780;9.212;2023-07-22T02:16:59;18.50;53.80
19258;DHT22;9763;48.780;9.212;2023-07-22T02:20:23;18.50;53.80
19258;DHT22;9763;48.780;9.212;2023-07-22T02:23:48;18.50;53.80
19258;DHT22;9763;48.780;9.212;2023-07-22T02:27:12;18.50;53.80
19258;DHT22;9763;48.780;9.212;2023-07-22T02:30:36;18.50;54.00
19258;DHT22;9763;48.780;9.212;2023-07-22T02:34:01;18.40;53.80
19258;DHT22;9763;48.780;9.212;2023-07-22T02:37:25;18.40;53.90
19258;DHT22;9763;48.780;9.212;2023-07-22T02:40:49;18.40;53.80
19258;DHT22;9763;48.780;9.212;2023-07-22T02:44:12;18.30;53.80
19258;DHT22;9763;48.780;9.212;2023-07-22T02:47:36;18.30;53.90
19258;DHT22;9763;48.780;9.212;2023-07-22T02:51:04;18.30;54.00
19258;DHT22;9763;48.780;9.212;2023-07-22T02:54:28;18.30;54.20
19258;DHT22;9763;48.780;9.212;2023-07-22T02:57:51;18.20;53.90
19258;DHT22;9763;48.780;9.212;2023-07-22T03:01:15;18.20;54.00
19258;DHT22;9763;48.780;9.212;2023-07-22T03:04:39;18.20;54.10
19258;DHT22;9763;48.780;9.212;2023-07-22T03:08:05;18.10;54.10
19258;DHT22;9763;48.780;9.212;2023-07-22T03:11:29;18.10;54.30
19258;DHT22;9763;48.780;9.212;2023-07-22T03:14:53;18.10;54.20
19258;DHT22;9763;48.780;9.212;2023-07-22T03:18:17;18.10;54.30
19258;DHT22;9763;48.780;9.212;2023-07-22T03:21:42;18.10;54.30
19258;DHT22;9763;48.780;9.212;2023-07-22T03:25:07;18.00;54.40
19258;DHT22;9763;48.780;9.212;2023-07-22T03:28:32;18.00;54.50
19258;DHT22;9763;48.780;9.212;2023-07-22T03:31:56;18.00;54.40
19258;DHT22;9763;48.780;9.212;2023-07-22T03:35:22;18.00;54.60
19258;DHT22;9763;48.780;9.212;2023-07-22T03:38:45;17.90;54.50
19258;DHT22;9763;48.780;9.212;2023-07-22T03:42:10;17.90;54.50
19258;DHT22;9763;48.780;9.212;2023-07-22T03:45:34;17.90;54.60
19258;DHT22;9763;48.780;9.212;2023-07-22T03:48:58;17.80;54.60
19258;DHT22;9763;48.780;9.212;2023-07-22T03:52:23;17.80;54.60
19258;DHT22;9763;48.780;9.212;2023-07-22T03:55:46;17.80;55.30
19258;DHT22;9763;48.780;9.212;2023-07-22T03:59:11;17.80;54.90
19258;DHT22;9763;48.780;9.212;2023-07-22T04:02:35;17.80;55.00
19258;DHT22;9763;48.780;9.212;2023-07-22T04:05:59;18.50;55.70
19258;DHT22;9763;48.780;9.212;2023-07-22T04:09:23;17.90;55.30
19258;DHT22;9763;48.780;9.212;2023-07-22T04:12:47;17.90;55.40
19258;DHT22;9763;48.780;9.212;2023-07-22T04:16:12;18.00;55.60
19258;DHT22;9763;48.780;9.212;2023-07-22T04:19:36;18.10;55.80
19258;DHT22;9763;48.780;9.212;2023-07-22T04:23:00;18.10;55.80
19258;DHT22;9763;48.780;9.212;2023-07-22T04:26:24;18.30;56.00
19258;DHT22;9763;48.780;9.212;2023-07-22T04:29:50;18.50;56.10
19258;DHT22;9763;48.780;9.212;2023-07-22T04:33:15;18.60;56.10
19258;DHT22;9763;48.780;9.212;2023-07-22T04:36:39;19.00;56.50
19258;DHT22;9763;48.780;9.212;2023-07-22T04:40:03;19.10;56.60
19258;DHT22;9763;48.780;9.212;2023-07-22T04:43:30;19.10;56.70
19258;DHT22;9763;48.780;9.212;2023-07-22T04:46:54;19.40;57.00
19258;DHT22;9763;48.780;9.212;2023-07-22T04:50:20;19.70;57.00
19258;DHT22;9763;48.780;9.212;2023-07-22T04:53:44;20.00;57.10
19258;DHT22;9763;48.780;9.212;2023-07-22T04:57:08;20.40;57.20
19258;DHT22;9763;48.780;9.212;2023-07-22T05:00:32;20.70;57.20
19258;DHT22;9763;48.780;9.212;2023-07-22T05:03:56;21.10;57.30
19258;DHT22;9763;48.780;9.212;2023-07-22T05:07:21;21.40;56.90
19258;DHT22;9763;48.780;9.212;2023-07-22T05:10:46;21.80;56.70
19258;DHT22;9763;48.780;9.212;2023-07-22T05:14:09;22.00;56.70
19258;DHT22;9763;48.780;9.212;2023-07-22T05:17:33;22.20;56.80
19258;DHT22;9763;48.780;9.212;2023-07-22T05:20:57;22.40;56.40
19258;DHT22;9763;48.780;9.212;2023-07-22T05:24:22;22.60;56.20
19258;DHT22;9763;48.780;9.212;2023-07-22T05:27:46;22.80;56.20
19258;DHT22;9763;48.780;9.212;2023-07-22T05:31:09;23.20;56.50
19258;DHT22;9763;48.780;9.212;2023-07-22T05:34:34;23.30;56.40
19258;DHT22;9763;48.780;9.212;2023-07-22T05:37:58;23.60;56.60
19258;DHT22;9763;48.780;9.212;2023-07-22T05:41:25;24.00;56.70
19258;DHT22;9763;48.780;9.212;2023-07-22T05:44:49;24.40;56.70
19258;DHT22;9763;48.780;9.212;2023-07-22T05:48:12;24.80;56.70
19258;DHT22;9763;48.780;9.212;2023-07-22T05:51:36;25.10;56.50
19258;DHT22;9763;48.780;9.212;2023-07-22T05:55:00;25.60;56.20
19258;DHT22;9763;48.780;9.212;2023-07-22T05:58:25;26.00;55.90
19258;DHT22;9763;48.780;9.212;2023-07-22T06:01:48;26.40;55.40
19258;DHT22;9763;48.780;9.212;2023-07-22T06:05:12;26.80;55.20
19258;DHT22;9763;48.780;9.212;2023-07-22T06:08:36;27.10;54.80
19258;DHT22;9763;48.780;9.212;2023-07-22T06:12:00;27.40;54.80
19258;DHT22;9763;48.780;9.212;2023-07-22T06:15:25;27.90;54.70
19258;DHT22;9763;48.780;9.212;2023-07-22T06:18:49;28.30;54.00
19258;DHT22;9763;48.780;9.212;2023-07-22T06:22:13;28.70;53.60
19258;DHT22;9763;48.780;9.212;2023-07-22T06:25:37;29.00;52.90
19258;DHT22;9763;48.780;9.212;2023-07-22T06:29:01;29.30;52.60
19258;DHT22;9763;48.780;9.212;2023-07-22T06:32:26;29.70;51.60
19258;DHT22;9763;48.780;9.212;2023-07-22T06:35:52;30.00;51.60
19258;DHT22;9763;48.780;9.212;2023-07-22T06:39:16;30.30;51.40
19258;DHT22;9763;48.780;9.212;2023-07-22T06:42:40;30.60;51.10
19258;DHT22;9763;48.780;9.212;2023-07-22T06:46:04;30.90;50.50
19258;DHT22;9763;48.780;9.212;2023-07-22T06:49:29;31.30;50.00
19258;DHT22;9763;48.780;9.212;2023-07-22T06:52:53;31.60;49.40
19258;DHT22;9763;48.780;9.212;2023-07-22T06:56:17;31.80;48.90
19258;DHT22;9763;48.780;9.212;2023-07-22T06:59:40;32.10;48.50
19258;DHT22;9763;48.780;9.212;2023-07-22T07:03:04;32.40;48.20
19258;DHT22;9763;48.780;9.212;2023-07-22T07:06:29;32.60;47.90
19258;DHT22;9763;48.780;9.212;2023-07-22T07:09:54;32.90;47.10
19258;DHT22;9763;48.780;9.212;2023-07-22T07:13:17;33.20;46.70
19258;DHT22;9763;48.780;9.212;2023-07-22T07:16:41;33.40;46.00
19258;DHT22;9763;48.780;9.212;2023-07-22T07:20:06;33.60;45.50
19258;DHT22;9763;48.780;9.212;2023-07-22T07:23:32;33.70;44.90
19258;DHT22;9763;48.780;9.212;2023-07-22T07:26:55;33.80;44.60
19258;DHT22;9763;48.780;9.212;2023-07-22T07:30:20;34.00;44.50
19258;DHT22;9763;48.780;9.212;2023-07-22T07:33:43;34.20;44.10
19258;DHT22;9763;48.780;9.212;2023-07-22T07:37:07;34.40;43.90
19258;DHT22;9763;48.780;9.212;2023-07-22T07:40:33;34.60;43.70
19258;DHT22;9763;48.780;9.212;2023-07-22T07:43:57;34.80;43.10
19258;DHT22;9763;48.780;9.212;2023-07-22T07:47:20;35.10;43.00
19258;DHT22;9763;48.780;9.212;2023-07-22T07:50:44;35.30;43.00
19258;DHT22;9763;48.780;9.212;2023-07-22T07:54:08;35.50;42.10
19258;DHT22;9763;48.780;9.212;2023-07-22T07:57:33;35.80;41.70
19258;DHT22;9763;48.780;9.212;2023-07-22T08:00:56;35.90;41.20
19258;DHT22;9763;48.780;9.212;2023-07-22T08:04:20;36.10;41.10
19258;DHT22;9763;48.780;9.212;2023-07-22T08:07:45;36.30;40.80
19258;DHT22;9763;48.780;9.212;2023-07-22T08:11:11;36.60;40.60
19258;DHT22;9763;48.780;9.212;2023-07-22T08:14:37;36.80;39.80
19258;DHT22;9763;48.780;9.212;2023-07-22T08:18:01;37.00;39.20
19258;DHT22;9763;48.780;9.212;2023-07-22T08:21:26;37.10;37.80
19258;DHT22;9763;48.780;9.212;2023-07-22T08:24:49;37.00;37.90
19258;DHT22;9763;48.780;9.212;2023-07-22T08:28:13;37.00;37.60
19258;DHT22;9763;48.780;9.212;2023-07-22T08:31:39;37.10;37.70
19258;DHT22;9763;48.780;9.212;2023-07-22T08:35:03;37.30;36.40
19258;DHT22;9763;48.780;9.212;2023-07-22T08:38:28;37.40;36.00
19258;DHT22;9763;48.780;9.212;2023-07-22T08:41:52;37.40;35.10
19258;DHT22;9763;48.780;9.212;2023-07-22T08:45:19;37.40;34.40
19258;DHT22;9763;48.780;9.212;2023-07-22T08:48:47;37.40;33.60
19258;DHT22;9763;48.780;9.212;2023-07-22T08:52:17;37.30;33.60
19258;DHT22;9763;48.780;9.212;2023-07-22T08:55:42;37.20;32.80
19258;DHT22;9763;48.780;9.212;2023-07-22T08:59:07;37.10;31.50
19258;DHT22;9763;48.780;9.212;2023-07-22T09:02:31;36.80;31.90
19258;DHT22;9763;48.780;9.212;2023-07-22T09:05:58;36.70;32.50
19258;DHT22;9763;48.780;9.212;2023-07-22T09:09:22;36.70;31.60
19258;DHT22;9763;48.780;9.212;2023-07-22T09:12:48;36.40;30.00
19258;DHT22;9763;48.780;9.212;2023-07-22T09:16:13;35.90;28.80
19258;DHT22;9763;48.780;9.212;2023-07-22T09:19:38;35.00;28.60
19258;DHT22;9763;48.780;9.212;2023-07-22T09:23:03;34.10;28.50
19258;DHT22;9763;48.780;9.212;2023-07-22T09:26:35;33.20;28.80
19258;DHT22;9763;48.780;9.212;2023-07-22T09:29:58;32.30;29.00
19258;DHT22;9763;48.780;9.212;2023-07-22T09:33:22;31.50;29.50
19258;DHT22;9763;48.780;9.212;2023-07-22T09:36:52;31.00;30.00
19258;DHT22;9763;48.780;9.212;2023-07-22T09:40:21;30.40;30.50
19258;DHT22;9763;48.780;9.212;2023-07-22T09:43:47;30.00;31.00
19258;DHT22;9763;48.780;9.212;2023-07-22T09:47:11;29.70;31.90
19258;DHT22;9763;48.780;9.212;2023-07-22T09:50:36;29.50;32.60
19258;DHT22;9763;48.780;9.212;2023-07-22T09:54:02;29.40;33.30
19258;DHT22;9763;48.780;9.212;2023-07-22T09:57:27;29.60;34.00
19258;DHT22;9763;48.780;9.212;2023-07-22T10:00:51;29.80;34.40
19258;DHT22;9763;48.780;9.212;2023-07-22T10:04:16;30.10;34.50
19258;DHT22;9763;48.780;9.212;2023-07-22T10:07:44;30.40;35.00
19258;DHT22;9763;48.780;9.212;2023-07-22T10:11:09;30.90;35.00
19258;DHT22;9763;48.780;9.212;2023-07-22T10:14:36;31.30;34.80
19258;DHT22;9763;48.780;9.212;2023-07-22T10:18:00;31.80;34.90
19258;DHT22;9763;48.780;9.212;2023-07-22T10:21:25;32.30;35.30
19258;DHT22;9763;48.780;9.212;2023-07-22T10:24:53;32.80;33.80
19258;DHT22;9763;48.780;9.212;2023-07-22T10:28:19;33.00;31.60
19258;DHT22;9763;48.780;9.212;2023-07-22T10:31:46;33.00;30.60
19258;DHT22;9763;48.780;9.212;2023-07-22T10:35:18;32.80;30.10
19258;DHT22;9763;48.780;9.212;2023-07-22T10:38:55;32.40;30.40
19258;DHT22;9763;48.780;9.212;2023-07-22T10:42:25;32.10;30.00
19258;DHT22;9763;48.780;9.212;2023-07-22T10:45:50;31.90;31.00
19258;DHT22;9763;48.780;9.212;2023-07-22T10:49:16;31.90;31.80
19258;DHT22;9763;48.780;9.212;2023-07-22T10:52:42;32.00;31.80
19258;DHT22;9763;48.780;9.212;2023-07-22T10:56:14;32.20;32.60
19258;DHT22;9763;48.780;9.212;2023-07-22T10:59:48;32.60;32.70
19258;DHT22;9763;48.780;9.212;2023-07-22T11:03:13;33.00;32.30
19258;DHT22;9763;48.780;9.212;2023-07-22T11:06:41;33.30;32.00
19258;DHT22;9763;48.780;9.212;2023-07-22T11:10:18;33.60;31.50
19258;DHT22;9763;48.780;9.212;2023-07-22T11:13:43;33.90;31.10
19258;DHT22;9763;48.780;9.212;2023-07-22T11:17:07;34.10;31.20
19258;DHT22;9763;48.780;9.212;2023-07-22T11:20:31;34.30;30.10
19258;DHT22;9763;48.780;9.212;2023-07-22T11:23:58;34.20;29.40
19258;DHT22;9763;48.780;9.212;2023-07-22T11:27:22;33.90;28.80
19258;DHT22;9763;48.780;9.212;2023-07-22T11:30:46;33.50;28.90
19258;DHT22;9763;48.780;9.212;2023-07-22T11:34:09;33.10;29.10
19258;DHT22;9763;48.780;9.212;2023-07-22T11:37:33;32.70;29.10
19258;DHT22;9763;48.780;9.212;2023-07-22T11:40:58;32.30;29.30
19258;DHT22;9763;48.780;9.212;2023-07-22T11:44:27;32.00;29.70
19258;DHT22;9763;48.780;9.212;2023-07-22T11:47:51;31.70;30.30
19258;DHT22;9763;48.780;9.212;2023-07-22T11:51:16;31.60;31.20
19258;DHT22;9763;48.780;9.212;2023-07-22T11:54:42;31.70;31.20
19258;DHT22;9763;48.780;9.212;2023-07-22T11:58:07;31.70;31.70
19258;DHT22;9763;48.780;9.212;2023-07-22T12:01:32;32.00;31.90
19258;DHT22;9763;48.780;9.212;2023-07-22T12:04:57;32.20;32.40
19258;DHT22;9763;48.780;9.212;2023-07-22T12:08:23;32.50;32.00
19258;DHT22;9763;48.780;9.212;2023-07-22T12:11:47;32.80;31.30
19258;DHT22;9763;48.780;9.212;2023-07-22T12:15:14;32.80;30.50
19258;DHT22;9763;48.780;9.212;2023-07-22T12:18:42;32.70;30.00
19258;DHT22;9763;48.780;9.212;2023-07-22T12:22:06;32.50;29.70
19258;DHT22;9763;48.780;9.212;2023-07-22T12:25:32;32.20;29.70
19258;DHT22;9763;48.780;9.212;2023-07-22T12:28:56;31.90;30.00
19258;DHT22;9763;48.780;9.212;2023-07-22T12:32:21;31.70;31.00
19258;DHT22;9763;48.780;9.212;2023-07-22T12:35:44;31.70;31.50
19258;DHT22;9763;48.780;9.212;2023-07-22T12:39:08;31.90;31.90
19258;DHT22;9763;48.780;9.212;2023-07-22T12:42:32;32.10;31.80
19258;DHT22;9763;48.780;9.212;2023-07-22T12:45:55;32.30;31.10
19258;DHT22;9763;48.780;9.212;2023-07-22T12:49:20;32.30;31.00
19258;DHT22;9763;48.780;9.212;2023-07-22T12:52:44;32.30;30.50
19258;DHT22;9763;48.780;9.212;2023-07-22T12:56:07;32.30;30.30
19258;DHT22;9763;48.780;9.212;2023-07-22T12:59:31;32.20;30.00
19258;DHT22;9763;48.780;9.212;2023-07-22T13:02:55;32.10;29.80
19258;DHT22;9763;48.780;9.212;2023-07-22T13:06:21;31.90;29.50
19258;DHT22;9763;48.780;9.212;2023-07-22T13:09:44;31.60;29.50
19258;DHT22;9763;48.780;9.212;2023-07-22T13:13:09;31.40;30.00
19258;DHT22;9763;48.780;9.212;2023-07-22T13:16:33;31.40;30.70
19258;DHT22;9763;48.780;9.212;2023-07-22T13:19:57;31.40;30.40
19258;DHT22;9763;48.780;9.212;2023-07-22T13:23:22;31.30;30.30
19258;DHT22;9763;48.780;9.212;2023-07-22T13:26:46;31.30;30.00
19258;DHT22;9763;48.780;9.212;2023-07-22T13:30:10;31.20;31.10
19258;DHT22;9763;48.780;9.212;2023-07-22T13:33:33;31.20;30.70
19258;DHT22;9763;48.780;9.212;2023-07-22T13:36:57;31.20;30.40
19258;DHT22;9763;48.780;9.212;2023-07-22T13:40:22;31.30;30.30
19258;DHT22;9763;48.780;9.212;2023-07-22T13:43:46;31.30;30.00
19258;DHT22;9763;48.780;9.212;2023-07-22T13:47:09;31.20;29.90
19258;DHT22;9763;48.780;9.212;2023-07-22T13:50:33;31.20;30.00
19258;DHT22;9763;48.780;9.212;2023-07-22T13:53:58;31.10;30.20
19258;DHT22;9763;48.780;9.212;2023-07-22T13:57:23;31.20;30.10
19258;DHT22;9763;48.780;9.212;2023-07-22T14:00:47;31.10;30.00
19258;DHT22;9763;48.780;9.212;2023-07-22T14:04:11;31.10;30.00
19258;DHT22;9763;48.780;9.212;2023-07-22T14:07:35;31.10;30.00
19258;DHT22;9763;48.780;9.212;2023-07-22T14:10:59;31.00;29.90
19258;DHT22;9763;48.780;9.212;2023-07-22T14:14:24;31.00;29.90
19258;DHT22;9763;48.780;9.212;2023-07-22T14:17:51;30.90;29.80
19258;DHT22;9763;48.780;9.212;2023-07-22T14:21:14;30.70;29.90
19258;DHT22;9763;48.780;9.212;2023-07-22T14:24:38;30.60;30.00
19258;DHT22;9763;48.780;9.212;2023-07-22T14:28:02;30.50;30.20
19258;DHT22;9763;48.780;9.212;2023-07-22T14:31:27;30.50;30.60
19258;DHT22;9763;48.780;9.212;2023-07-22T14:34:51;30.50;30.70
19258;DHT22;9763;48.780;9.212;2023-07-22T14:38:14;30.50;30.80
19258;DHT22;9763;48.780;9.212;2023-07-22T14:41:41;30.60;30.70
19258;DHT22;9763;48.780;9.212;2023-07-22T14:45:06;30.60;30.60
19258;DHT22;9763;48.780;9.212;2023-07-22T14:48:32;30.60;30.70
19258;DHT22;9763;48.780;9.212;2023-07-22T14:51:55;30.60;30.70
19258;DHT22;9763;48.780;9.212;2023-07-22T14:55:19;30.60;30.60
19258;DHT22;9763;48.780;9.212;2023-07-22T14:58:43;30.50;30.50
19258;DHT22;9763;48.780;9.212;2023-07-22T15:02:07;30.50;30.30
19258;DHT22;9763;48.780;9.212;2023-07-22T15:05:34;30.40;30.30
19258;DHT22;9763;48.780;9.212;2023-07-22T15:08:57;30.30;30.40
19258;DHT22;9763;48.780;9.212;2023-07-22T15:12:22;30.20;30.40
19258;DHT22;9763;48.780;9.212;2023-07-22T15:15:45;30.10;30.50
19258;DHT22;9763;48.780;9.212;2023-07-22T15:19:10;30.00;30.60
19258;DHT22;9763;48.780;9.212;2023-07-22T15:22:34;29.90;30.60
19258;DHT22;9763;48.780;9.212;2023-07-22T15:25:58;29.80;30.60
19258;DHT22;9763;48.780;9.212;2023-07-22T15:29:22;29.70;30.70
19258;DHT22;9763;48.780;9.212;2023-07-22T15:32:45;29.70;30.90
19258;DHT22;9763;48.780;9.212;2023-07-22T15:36:09;29.60;31.00
19258;DHT22;9763;48.780;9.212;2023-07-22T15:39:34;29.60;31.10
19258;DHT22;9763;48.780;9.212;2023-07-22T15:42:58;29.60;31.30
19258;DHT22;9763;48.780;9.212;2023-07-22T15:46:21;29.60;31.40
19258;DHT22;9763;48.780;9.212;2023-07-22T15:49:45;29.60;31.40
19258;DHT22;9763;48.780;9.212;2023-07-22T15:53:09;29.60;31.30
19258;DHT22;9763;48.780;9.212;2023-07-22T15:56:34;29.60;31.30
19258;DHT22;9763;48.780;9.212;2023-07-22T15:59:59;29.60;31.30
19258;DHT22;9763;48.780;9.212;2023-07-22T16:03:26;29.60;31.50
19258;DHT22;9763;48.780;9.212;2023-07-22T16:06:50;29.50;31.60
19258;DHT22;9763;48.780;9.212;2023-07-22T16:10:13;29.50;31.70
19258;DHT22;9763;48.780;9.212;2023-07-22T16:13:38;29.50;31.70
19258;DHT22;9763;48.780;9.212;2023-07-22T16:17:02;29.50;31.80
19258;DHT22;9763;48.780;9.212;2023-07-22T16:20:25;29.40;31.80
19258;DHT22;9763;48.780;9.212;2023-07-22T16:23:49;29.40;31.90
19258;DHT22;9763;48.780;9.212;2023-07-22T16:27:13;29.30;32.00
19258;DHT22;9763;48.780;9.212;2023-07-22T16:30:38;29.30;32.20
19258;DHT22;9763;48.780;9.212;2023-07-22T16:34:02;29.20;32.30
19258;DHT22;9763;48.780;9.212;2023-07-22T16:37:25;29.20;32.40
19258;DHT22;9763;48.780;9.212;2023-07-22T16:40:49;29.20;32.50
19258;DHT22;9763;48.780;9.212;2023-07-22T16:44:13;29.10;32.50
19258;DHT22;9763;48.780;9.212;2023-07-22T16:47:38;29.00;32.50
19258;DHT22;9763;48.780;9.212;2023-07-22T16:51:02;29.00;32.60
19258;DHT22;9763;48.780;9.212;2023-07-22T16:54:26;29.00;32.90
19258;DHT22;9763;48.780;9.212;2023-07-22T16:57:49;28.90;32.90
19258;DHT22;9763;48.780;9.212;2023-07-22T17:01:13;28.90;33.00
19258;DHT22;9763;48.780;9.212;2023-07-22T17:04:40;28.90;32.90
19258;DHT22;9763;48.780;9.212;2023-07-22T17:08:04;28.90;32.90
19258;DHT22;9763;48.780;9.212;2023-07-22T17:11:27;28.90;32.90
19258;DHT22;9763;48.780;9.212;2023-07-22T17:14:52;28.90;32.90
19258;DHT22;9763;48.780;9.212;2023-07-22T17:18:15;28.90;32.80
19258;DHT22;9763;48.780;9.212;2023-07-22T17:21:40;28.90;32.70
19258;DHT22;9763;48.780;9.212;2023-07-22T17:25:04;28.90;32.70
19258;DHT22;9763;48.780;9.212;2023-07-22T17:28:28;28.80;32.70
19258;DHT22;9763;48.780;9.212;2023-07-22T17:31:52;28.80;32.80
19258;DHT22;9763;48.780;9.212;2023-07-22T17:35:16;28.70;32.70
19258;DHT22;9763;48.780;9.212;2023-07-22T17:38:41;28.70;32.70
19258;DHT22;9763;48.780;9.212;2023-07-22T17:42:05;28.70;32.80
19258;DHT22;9763;48.780;9.212;2023-07-22T17:45:29;28.60;32.70
19258;DHT22;9763;48.780;9.212;2023-07-22T17:48:52;28.60;32.80
19258;DHT22;9763;48.780;9.212;2023-07-22T17:52:16;28.50;32.80
19258;DHT22;9763;48.780;9.212;2023-07-22T17:55:41;28.50;32.70
19258;DHT22;9763;48.780;9.212;2023-07-22T17:59:05;28.40;32.70
19258;DHT22;9763;48.780;9.212;2023-07-22T18:02:28;28.30;32.60
19258;DHT22;9763;48.780;9.212;2023-07-22T18:05:52;28.20;32.60
19258;DHT22;9763;48.780;9.212;2023-07-22T18:09:16;28.20;32.80
19258;DHT22;9763;48.780;9.212;2023-07-22T18:12:41;28.10;32.80
19258;DHT22;9763;48.780;9.212;2023-07-22T18:16:04;28.00;33.50
19258;DHT22;9763;48.780;9.212;2023-07-22T18:19:28;27.90;32.80
19258;DHT22;9763;48.780;9.212;2023-07-22T18:22:52;27.90;33.00
19258;DHT22;9763;48.780;9.212;2023-07-22T18:26:15;27.80;33.00
19258;DHT22;9763;48.780;9.212;2023-07-22T18:29:41;27.70;33.10
19258;DHT22;9763;48.780;9.212;2023-07-22T18:33:04;27.70;33.20
19258;DHT22;9763;48.780;9.212;2023-07-22T18:36:28;27.60;33.20
19258;DHT22;9763;48.780;9.212;2023-07-22T18:39:52;27.50;33.20
19258;DHT22;9763;48.780;9.212;2023-07-22T18:43:16;27.50;33.30
19258;DHT22;9763;48.780;9.212;2023-07-22T18:46:42;27.50;33.50
19258;DHT22;9763;48.780;9.212;2023-07-22T18:50:07;27.40;33.50
19258;DHT22;9763;48.780;9.212;2023-07-22T18:53:31;27.30;33.70
19258;DHT22;9763;48.780;9.212;2023-07-22T18:56:55;27.30;33.70
19258;DHT22;9763;48.780;9.212;2023-07-22T19:00:18;27.20;33.80
19258;DHT22;9763;48.780;9.212;2023-07-22T19:03:43;28.20;34.60
19258;DHT22;9763;48.780;9.212;2023-07-22T19:07:07;27.00;34.00
19258;DHT22;9763;48.780;9.212;2023-07-22T19:10:30;27.00;34.10
19258;DHT22;9763;48.780;9.212;2023-07-22T19:13:54;26.90;34.20
19258;DHT22;9763;48.780;9.212;2023-07-22T19:17:19;26.70;34.30
19258;DHT22;9763;48.780;9.212;2023-07-22T19:20:54;26.60;34.40
19258;DHT22;9763;48.780;9.212;2023-07-22T19:24:18;26.50;34.90
19258;DHT22;9763;48.780;9.212;2023-07-22T19:27:42;26.40;34.70
19258;DHT22;9763;48.780;9.212;2023-07-22T19:31:06;26.30;34.90
19258;DHT22;9763;48.780;9.212;2023-07-22T19:34:29;26.10;34.90
19258;DHT22;9763;48.780;9.212;2023-07-22T19:37:54;26.00;34.90
19258;DHT22;9763;48.780;9.212;2023-07-22T19:41:17;25.90;35.10
19258;DHT22;9763;48.780;9.212;2023-07-22T19:44:41;25.80;35.10
19258;DHT22;9763;48.780;9.212;2023-07-22T19:48:05;25.70;35.30
19258;DHT22;9763;48.780;9.212;2023-07-22T19:51:31;25.60;35.50
19258;DHT22;9763;48.780;9.212;2023-07-22T19:54:56;25.60;35.60
19258;DHT22;9763;48.780;9.212;2023-07-22T19:58:20;25.50;35.80
19258;DHT22;9763;48.780;9.212;2023-07-22T20:01:44;25.40;35.70
19258;DHT22;9763;48.780;9.212;2023-07-22T20:05:08;25.50;35.80
19258;DHT22;9763;48.780;9.212;2023-07-22T20:08:32;25.30;35.70
19258;DHT22;9763;48.780;9.212;2023-07-22T20:11:57;25.20;36.00
19258;DHT22;9763;48.780;9.212;2023-07-22T20:15:21;25.10;36.10
19258;DHT22;9763;48.780;9.212;2023-07-22T20:18:44;25.10;36.10
19258;DHT22;9763;48.780;9.212;2023-07-22T20:22:08;25.00;36.30
19258;DHT22;9763;48.780;9.212;2023-07-22T20:25:33;24.90;36.40
19258;DHT22;9763;48.780;9.212;2023-07-22T20:29:01;24.90;36.50
19258;DHT22;9763;48.780;9.212;2023-07-22T20:32:24;25.00;37.00
19258;DHT22;9763;48.780;9.212;2023-07-22T20:35:54;24.80;37.00
19258;DHT22;9763;48.780;9.212;2023-07-22T20:39:18;24.70;37.30
19258;DHT22;9763;48.780;9.212;2023-07-22T20:42:44;24.70;37.30
19258;DHT22;9763;48.780;9.212;2023-07-22T20:46:09;24.70;37.50
19258;DHT22;9763;48.780;9.212;2023-07-22T20:49:32;24.60;37.60
19258;DHT22;9763;48.780;9.212;2023-07-22T20:52:56;24.60;37.70
19258;DHT22;9763;48.780;9.212;2023-07-22T20:56:20;24.60;37.80
19258;DHT22;9763;48.780;9.212;2023-07-22T20:59:46;24.80;38.00
19258;DHT22;9763;48.780;9.212;2023-07-22T21:03:12;24.60;38.00
19258;DHT22;9763;48.780;9.212;2023-07-22T21:06:36;24.70;38.10
19258;DHT22;9763;48.780;9.212;2023-07-22T21:09:59;24.70;38.20
19258;DHT22;9763;48.780;9.212;2023-07-22T21:13:23;24.70;38.20
19258;DHT22;9763;48.780;9.212;2023-07-22T21:16:47;24.80;38.30
19258;DHT22;9763;48.780;9.212;2023-07-22T21:20:12;24.80;38.40
19258;DHT22;9763;48.780;9.212;2023-07-22T21:23:36;24.90;38.40
19258;DHT22;9763;48.780;9.212;2023-07-22T21:27:01;24.90;38.30
19258;DHT22;9763;48.780;9.212;2023-07-22T21:30:25;25.00;38.50
19258;DHT22;9763;48.780;9.212;2023-07-22T21:33:48;25.00;38.40
19258;DHT22;9763;48.780;9.212;2023-07-22T21:37:14;25.10;38.40
19258;DHT22;9763;48.780;9.212;2023-07-22T21:40:37;25.10;38.30
19258;DHT22;9763;48.780;9.212;2023-07-22T21:44:01;25.10;38.30
19258;DHT22;9763;48.780;9.212;2023-07-22T21:47:25;25.10;38.20
19258;DHT22;9763;48.780;9.212;2023-07-22T21:50:48;25.10;38.10